createdAt,value
2018-03-17T00:02:55.044Z,9.68
2018-03-17T00:08:45.722Z,8.01
2018-03-17T00:14:36.242Z,8.46
2018-03-17T00:20:26.925Z,8.14
2018-03-17T00:26:17.548Z,5.2
2018-03-17T00:32:08.189Z,4.07
2018-03-17T00:37:58.892Z,3.52
2018-03-17T00:43:49.508Z,3.21
2018-03-17T00:49:40.183Z,4.8
2018-03-17T00:55:30.753Z,5.94
2018-03-17T01:01:21.422Z,8.48
2018-03-17T01:07:12.072Z,7.05
2018-03-17T01:13:02.719Z,8.75
2018-03-17T01:18:53.308Z,9.52
2018-03-17T01:24:43.980Z,7.82
2018-03-17T01:30:34.627Z,6.44
2018-03-17T01:36:25.271Z,5.98
2018-03-17T01:42:15.857Z,6.15
2018-03-17T01:48:06.501Z,4.46
2018-03-17T01:53:57.132Z,5.02
2018-03-17T01:59:47.786Z,4.46
2018-03-17T02:05:38.442Z,4.31
2018-03-17T02:11:29.076Z,3.89
2018-03-17T02:17:19.714Z,5.3
2018-03-17T02:23:10.353Z,4.93
2018-03-17T02:29:01.009Z,5.74
2018-03-17T02:34:51.621Z,5.89
2018-03-17T02:40:42.290Z,5.86
2018-03-17T02:46:32.955Z,4.94
2018-03-17T02:52:23.646Z,2.98
2018-03-17T02:58:14.214Z,2.72
2018-03-17T03:04:04.932Z,2.8
2018-03-17T03:09:55.566Z,3.53
2018-03-17T03:15:46.119Z,4.68
2018-03-17T03:21:36.839Z,4.56
2018-03-17T03:27:27.481Z,4.38
2018-03-17T03:33:18.108Z,4.74
2018-03-17T03:39:08.747Z,5.34
2018-03-17T03:44:59.380Z,5.01
2018-03-17T03:50:50.023Z,4.06
2018-03-17T03:56:40.631Z,3.77
2018-03-17T04:02:31.251Z,3.91
2018-03-17T04:08:21.919Z,3.69
2018-03-17T04:14:12.534Z,3
2018-03-17T04:20:03.161Z,5.25
2018-03-17T04:25:53.800Z,6.19
2018-03-17T04:31:44.488Z,5.47
2018-03-17T04:37:35.093Z,5.14
2018-03-17T04:43:25.761Z,5.23
2018-03-17T04:49:16.469Z,5.15
2018-03-17T04:55:06.977Z,4.55
2018-03-17T05:00:57.605Z,5.41
2018-03-17T05:06:48.240Z,4.62
2018-03-17T05:12:38.894Z,4.48
2018-03-17T05:18:29.510Z,3.24
2018-03-17T05:24:20.239Z,3.31
2018-03-17T05:30:10.835Z,2.65
2018-03-17T05:36:01.448Z,2.42
2018-03-17T05:41:52.054Z,1.77
2018-03-17T05:47:42.719Z,1.84
2018-03-17T05:53:33.352Z,2.12
2018-03-17T05:59:24.009Z,2.08
2018-03-17T06:05:14.596Z,2.1
2018-03-17T06:11:05.227Z,1.81
2018-03-17T06:16:55.869Z,2.26
2018-03-17T06:22:46.506Z,2.23
2018-03-17T06:28:37.120Z,2.12
2018-03-17T06:34:27.784Z,1.75
2018-03-17T06:40:18.363Z,1.32
2018-03-17T06:46:09.010Z,1.75
2018-03-17T06:51:59.674Z,1.7
2018-03-17T06:57:50.238Z,0.93
2018-03-17T07:03:40.918Z,1.36
2018-03-17T07:09:31.528Z,1.69
2018-03-17T07:15:22.176Z,1.75
2018-03-17T07:21:12.831Z,1.55
2018-03-17T07:27:03.444Z,1.96
2018-03-17T07:32:54.112Z,2.75
2018-03-17T07:38:44.696Z,4.76
2018-03-17T07:44:35.396Z,3.84
2018-03-17T07:50:25.974Z,3.5
2018-03-17T07:56:16.694Z,4.15
2018-03-17T08:02:07.303Z,4.06
2018-03-17T08:07:57.931Z,5.12
2018-03-17T08:13:48.620Z,4.51
2018-03-17T08:19:39.226Z,4.68
2018-03-17T08:25:29.896Z,5.49
2018-03-17T08:31:20.486Z,5.56
2018-03-17T08:37:11.160Z,5.56
2018-03-17T08:43:01.800Z,5.84
2018-03-17T08:48:52.500Z,5.35
2018-03-17T08:54:43.125Z,5.09
2018-03-17T09:00:33.772Z,4.43
2018-03-17T09:06:24.492Z,4.95
2018-03-17T09:12:15.160Z,4.49
2018-03-17T09:18:05.748Z,3.96
2018-03-17T09:23:56.388Z,3.62
2018-03-17T09:29:47.076Z,4.41
2018-03-17T09:35:37.733Z,5.03
2018-03-17T09:41:28.414Z,1.75
2018-03-17T09:47:19.027Z,1.36
2018-03-17T09:53:09.681Z,0.99
2018-03-17T09:59:00.433Z,0.96
2018-03-17T10:04:51.034Z,0.81
2018-03-17T10:10:41.663Z,0.74
2018-03-17T10:16:32.336Z,0.78
2018-03-17T10:22:23.004Z,0.74
2018-03-17T10:28:13.685Z,0.82
2018-03-17T10:34:04.350Z,0.97
2018-03-17T10:39:54.993Z,0.56
2018-03-17T10:45:45.615Z,0.7
2018-03-17T10:51:36.338Z,1.55
2018-03-17T10:57:26.956Z,0.66
2018-03-17T11:03:17.637Z,0.57
2018-03-17T11:09:08.284Z,0.52
2018-03-17T11:14:58.959Z,0.43
2018-03-17T11:20:49.612Z,0.7
2018-03-17T11:26:40.363Z,0.39
2018-03-17T11:32:30.951Z,0.5
2018-03-17T11:38:21.554Z,0.46
2018-03-17T11:44:12.284Z,0.43
2018-03-17T11:50:02.923Z,0.5
2018-03-17T11:55:53.583Z,0.46
2018-03-17T12:01:44.264Z,0.4
2018-03-17T12:07:34.964Z,0.4
2018-03-17T12:13:25.651Z,0.46
2018-03-17T12:19:16.253Z,0.6
2018-03-17T12:25:06.981Z,0.51
2018-03-17T12:30:57.604Z,0.4
2018-03-17T12:36:48.287Z,0.55
2018-03-17T12:42:39.014Z,0.48
2018-03-17T12:48:29.698Z,0.72
2018-03-17T12:54:20.313Z,0.5
2018-03-17T13:00:10.980Z,0.6
2018-03-17T13:06:01.680Z,0.6
2018-03-17T13:11:52.335Z,0.64
2018-03-17T13:17:42.961Z,0.54
2018-03-17T13:23:33.603Z,1.7
2018-03-17T13:29:24.240Z,0.68
2018-03-17T13:35:14.904Z,0.76
2018-03-17T13:41:05.560Z,0.88
2018-03-17T13:46:56.157Z,0.7
2018-03-17T13:52:46.844Z,0.82
2018-03-17T13:58:37.511Z,0.7
2018-03-17T14:04:28.183Z,0.86
2018-03-17T14:10:18.780Z,0.66
2018-03-17T14:16:09.438Z,0.76
2018-03-17T14:22:00.107Z,0.93
2018-03-17T14:27:50.798Z,0.62
2018-03-17T14:33:41.496Z,0.95
2018-03-17T14:39:32.177Z,0.97
2018-03-17T14:45:22.788Z,0.85
2018-03-17T14:51:13.440Z,1.07
2018-03-17T14:57:04.199Z,1.35
2018-03-17T15:02:54.814Z,1.09
2018-03-17T15:08:45.511Z,1.48
2018-03-17T15:14:36.122Z,1.43
2018-03-17T15:20:26.729Z,1.92
2018-03-17T15:26:17.405Z,1.49
2018-03-17T15:32:08.081Z,2.4
2018-03-17T15:37:58.726Z,1.51
2018-03-17T15:43:49.423Z,0.99
2018-03-17T15:49:39.987Z,1.25
2018-03-17T15:55:30.652Z,1.09
2018-03-17T16:01:21.303Z,1.37
2018-03-17T16:07:11.963Z,1.51
2018-03-17T16:13:02.671Z,0.81
2018-03-17T16:18:53.250Z,1.23
2018-03-17T16:24:43.923Z,1.76
2018-03-17T16:30:34.526Z,1.98
2018-03-17T16:36:25.220Z,1.25
2018-03-17T16:42:15.828Z,1.05
2018-03-17T16:48:06.487Z,1.01
2018-03-17T16:53:57.158Z,0.88
2018-03-17T16:59:47.787Z,0.82
2018-03-17T17:05:38.442Z,1.07
2018-03-17T17:11:29.098Z,0.86
2018-03-17T17:17:19.730Z,1.01
2018-03-17T17:23:10.360Z,1.4
2018-03-17T17:29:01.004Z,1.12
2018-03-17T17:34:51.641Z,1.47
2018-03-17T17:40:42.354Z,1.7
2018-03-17T17:46:32.897Z,1.37
2018-03-17T17:52:23.558Z,1.48
2018-03-17T17:58:14.214Z,1.91
2018-03-17T18:04:04.848Z,2.16
2018-03-17T18:09:55.532Z,1.82
2018-03-17T18:15:46.244Z,2.14
2018-03-17T18:21:36.785Z,2.06
2018-03-17T18:27:27.400Z,2.08
2018-03-17T18:33:18.173Z,2.25
2018-03-17T18:39:08.720Z,1.91
2018-03-17T18:44:59.343Z,1.86
2018-03-17T18:50:49.971Z,2.05
2018-03-17T18:56:40.747Z,2.62
2018-03-17T19:02:31.250Z,2.32
2018-03-17T19:08:21.863Z,1.62
2018-03-17T19:14:12.518Z,2.2
2018-03-17T19:20:03.159Z,2.27
2018-03-17T19:25:53.821Z,2.06
2018-03-17T19:31:44.436Z,1.55
2018-03-17T19:37:35.111Z,1.48
2018-03-17T19:43:25.721Z,1.32
2018-03-17T19:49:16.349Z,1.67
2018-03-17T19:55:07.083Z,1.44
2018-03-17T20:00:57.758Z,1.87
2018-03-17T20:06:48.246Z,1.79
2018-03-17T20:12:38.923Z,2.03
2018-03-17T20:18:29.615Z,1.84
2018-03-17T20:24:20.217Z,2.17
2018-03-17T20:30:10.853Z,1.38
2018-03-17T20:36:01.479Z,1.48
2018-03-17T20:41:52.126Z,1.56
2018-03-17T20:47:42.754Z,2.1
2018-03-17T20:53:33.356Z,1.31
2018-03-17T20:59:24.022Z,1.45
2018-03-17T21:05:14.660Z,1.56
2018-03-17T21:11:05.345Z,1.79
2018-03-17T21:16:55.956Z,1.61
2018-03-17T21:22:46.606Z,1.4
2018-03-17T21:28:37.210Z,1.04
2018-03-17T21:34:27.829Z,1.11
2018-03-17T21:40:18.456Z,1.79
2018-03-17T21:46:09.112Z,1.63
2018-03-17T21:51:59.736Z,2.6
2018-03-17T21:57:50.419Z,2.08
2018-03-17T22:03:41.060Z,1.75
2018-03-17T22:09:31.685Z,1.81
2018-03-17T22:15:22.273Z,1.83
2018-03-17T22:21:12.925Z,1.45
2018-03-17T22:27:03.609Z,1.96
2018-03-17T22:32:54.215Z,2.45
2018-03-17T22:38:44.885Z,2.02
2018-03-17T22:44:35.499Z,1.65
2018-03-17T22:50:26.094Z,2.02
2018-03-17T22:56:16.715Z,2
2018-03-17T23:02:07.385Z,2.09
2018-03-17T23:07:57.957Z,1.83
2018-03-17T23:13:48.620Z,3.39
2018-03-17T23:19:39.227Z,1.64
2018-03-17T23:25:29.921Z,2.27
2018-03-17T23:31:20.492Z,1.92
2018-03-17T23:37:11.186Z,2.15
2018-03-17T23:43:01.802Z,2.42
2018-03-17T23:48:52.357Z,1.62
2018-03-17T23:54:43.029Z,2.1
